sensor_id;sensor_type;location;lat;lon;timestamp;pressure;altitude;pressure_sealevel;temperature;humidity
41515;BME280;27247;48.020;16.720;2023-04-07T00:02:13;99890.91;;;5.68;61.28
41515;BME280;27247;48.020;16.720;2023-04-07T00:06:23;99891.88;;;5.67;61.62
41515;BME280;27247;48.020;16.720;2023-04-07T00:10:34;99889.78;;;5.70;61.63
41515;BME280;27247;48.020;16.720;2023-04-07T00:14:44;99883.25;;;5.65;61.54
41515;BME280;27247;48.020;16.720;2023-04-07T00:18:54;99889.78;;;5.70;62.23
41515;BME280;27247;48.020;16.720;2023-04-07T00:23:05;99889.50;;;5.64;63.30
41515;BME280;27247;48.020;16.720;2023-04-07T00:27:15;99883.66;;;5.60;63.19
41515;BME280;27247;48.020;16.720;2023-04-07T00:31:25;99877.97;;;5.55;62.97
41515;BME280;27247;48.020;16.720;2023-04-07T00:35:36;99870.44;;;5.51;62.46
41515;BME280;27247;48.020;16.720;2023-04-07T00:39:46;99869.31;;;5.43;61.32
41515;BME280;27247;48.020;16.720;2023-04-07T00:43:57;99869.19;;;5.45;61.44
41515;BME280;27247;48.020;16.720;2023-04-07T00:48:07;99863.72;;;5.56;60.70
41515;BME280;27247;48.020;16.720;2023-04-07T00:52:20;99862.59;;;5.59;60.65
41515;BME280;27247;48.020;16.720;2023-04-07T00:56:36;99862.31;;;5.62;60.53
41515;BME280;27247;48.020;16.720;2023-04-07T01:01:09;99857.72;;;5.64;59.83
41515;BME280;27247;48.020;16.720;2023-04-07T01:09:52;99851.03;;;5.50;59.42
41515;BME280;27247;48.020;16.720;2023-04-07T01:14:05;99842.22;;;5.59;59.36
41515;BME280;27247;48.020;16.720;2023-04-07T01:18:20;99836.94;;;5.59;58.85
41515;BME280;27247;48.020;16.720;2023-04-07T01:22:42;99830.06;;;5.66;58.93
41515;BME280;27247;48.020;16.720;2023-04-07T01:26:59;99846.56;;;5.60;58.12
41515;BME280;27247;48.020;16.720;2023-04-07T01:31:15;99846.28;;;5.63;58.58
41515;BME280;27247;48.020;16.720;2023-04-07T01:35:31;99844.88;;;5.59;58.89
41515;BME280;27247;48.020;16.720;2023-04-07T01:39:42;99837.63;;;5.61;58.72
41515;BME280;27247;48.020;16.720;2023-04-07T01:43:53;99834.28;;;5.59;57.97
41515;BME280;27247;48.020;16.720;2023-04-07T01:48:05;99836.50;;;5.64;58.12
41515;BME280;27247;48.020;16.720;2023-04-07T01:52:16;99827.59;;;5.55;57.67
41515;BME280;27247;48.020;16.720;2023-04-07T01:56:27;99830.09;;;5.57;58.19
41515;BME280;27247;48.020;16.720;2023-04-07T02:00:37;99833.16;;;5.62;58.08
41515;BME280;27247;48.020;16.720;2023-04-07T02:04:55;99837.50;;;5.53;57.84
41515;BME280;27247;48.020;16.720;2023-04-07T02:09:06;99832.91;;;5.55;58.05
41515;BME280;27247;48.020;16.720;2023-04-07T02:13:19;99822.00;;;5.58;58.08
41515;BME280;27247;48.020;16.720;2023-04-07T02:17:31;99824.94;;;5.55;57.75
41515;BME280;27247;48.020;16.720;2023-04-07T02:21:45;99829.97;;;5.58;57.54
41515;BME280;27247;48.020;16.720;2023-04-07T02:25:56;99832.91;;;5.55;57.66
41515;BME280;27247;48.020;16.720;2023-04-07T02:30:07;99834.56;;;5.56;57.57
41515;BME280;27247;48.020;16.720;2023-04-07T02:34:18;99828.28;;;5.57;57.28
41515;BME280;27247;48.020;16.720;2023-04-07T02:38:28;99822.28;;;5.55;57.45
41515;BME280;27247;48.020;16.720;2023-04-07T02:42:38;99824.81;;;5.47;57.63
41515;BME280;27247;48.020;16.720;2023-04-07T02:46:49;99824.44;;;5.42;57.64
41515;BME280;27247;48.020;16.720;2023-04-07T02:51:00;99825.25;;;5.42;57.76
41515;BME280;27247;48.020;16.720;2023-04-07T02:55:10;99814.81;;;5.41;57.94
41515;BME280;27247;48.020;16.720;2023-04-07T02:59:20;99818.16;;;5.33;58.33
41515;BME280;27247;48.020;16.720;2023-04-07T03:03:31;99814.97;;;5.20;58.06
41515;BME280;27247;48.020;16.720;2023-04-07T03:07:42;99809.41;;;5.23;58.02
41515;BME280;27247;48.020;16.720;2023-04-07T03:11:52;99818.59;;;5.29;57.94
41515;BME280;27247;48.020;16.720;2023-04-07T03:16:03;99815.25;;;5.27;58.10
41515;BME280;27247;48.020;16.720;2023-04-07T03:20:13;99810.09;;;5.25;57.84
41515;BME280;27247;48.020;16.720;2023-04-07T03:24:24;99817.50;;;5.22;57.93
41515;BME280;27247;48.020;16.720;2023-04-07T03:28:34;99808.13;;;5.18;58.55
41515;BME280;27247;48.020;16.720;2023-04-07T03:32:45;99812.75;;;5.25;58.50
41515;BME280;27247;48.020;16.720;2023-04-07T03:36:55;99812.06;;;5.23;58.51
41515;BME280;27247;48.020;16.720;2023-04-07T03:41:05;99804.50;;;5.19;58.70
41515;BME280;27247;48.020;16.720;2023-04-07T03:45:16;99805.91;;;5.23;58.73
41515;BME280;27247;48.020;16.720;2023-04-07T03:49:26;99802.56;;;5.21;58.58
41515;BME280;27247;48.020;16.720;2023-04-07T03:53:36;99797.38;;;5.19;58.28
41515;BME280;27247;48.020;16.720;2023-04-07T03:57:47;99805.06;;;5.12;58.81
41515;BME280;27247;48.020;16.720;2023-04-07T04:01:57;99803.41;;;5.21;58.99
41515;BME280;27247;48.020;16.720;2023-04-07T04:06:08;99796.16;;;5.13;58.31
41515;BME280;27247;48.020;16.720;2023-04-07T04:10:19;99795.88;;;5.17;58.75
41515;BME280;27247;48.020;16.720;2023-04-07T04:14:29;99793.09;;;5.08;58.60
41515;BME280;27247;48.020;16.720;2023-04-07T04:18:40;99787.09;;;5.06;58.71
41515;BME280;27247;48.020;16.720;2023-04-07T04:22:50;99792.81;;;5.11;59.05
41515;BME280;27247;48.020;16.720;2023-04-07T04:27:01;99795.59;;;5.10;58.85
41515;BME280;27247;48.020;16.720;2023-04-07T04:31:11;99794.19;;;5.06;58.75
41515;BME280;27247;48.020;16.720;2023-04-07T04:35:22;99789.47;;;5.09;58.76
41515;BME280;27247;48.020;16.720;2023-04-07T04:39:32;99792.66;;;5.13;58.70
41515;BME280;27247;48.020;16.720;2023-04-07T04:43:43;99790.28;;;5.10;58.56
41515;BME280;27247;48.020;16.720;2023-04-07T04:47:53;99791.13;;;5.10;58.86
41515;BME280;27247;48.020;16.720;2023-04-07T04:52:04;99786.38;;;5.14;58.78
41515;BME280;27247;48.020;16.720;2023-04-07T04:56:14;99787.91;;;5.17;58.65
41515;BME280;27247;48.020;16.720;2023-04-07T05:00:24;99792.38;;;5.16;58.36
41515;BME280;27247;48.020;16.720;2023-04-07T05:04:35;99788.22;;;5.23;58.49
41515;BME280;27247;48.020;16.720;2023-04-07T05:08:45;99785.56;;;5.23;58.58
41515;BME280;27247;48.020;16.720;2023-04-07T05:12:56;99790.56;;;5.26;58.57
41515;BME280;27247;48.020;16.720;2023-04-07T05:17:06;99794.47;;;5.32;58.87
41515;BME280;27247;48.020;16.720;2023-04-07T05:21:16;99801.16;;;5.26;58.71
41515;BME280;27247;48.020;16.720;2023-04-07T05:25:29;99799.06;;;5.30;58.58
41515;BME280;27247;48.020;16.720;2023-04-07T05:29:39;99801.69;;;5.39;58.78
41515;BME280;27247;48.020;16.720;2023-04-07T05:33:50;99799.31;;;5.46;58.64
41515;BME280;27247;48.020;16.720;2023-04-07T05:38:00;99801.41;;;5.42;58.44
41515;BME280;27247;48.020;16.720;2023-04-07T05:42:10;99802.38;;;5.51;58.46
41515;BME280;27247;48.020;16.720;2023-04-07T05:46:21;99800.13;;;5.56;57.94
41515;BME280;27247;48.020;16.720;2023-04-07T05:50:31;99807.78;;;5.59;57.91
41515;BME280;27247;48.020;16.720;2023-04-07T05:54:42;99810.44;;;5.59;57.94
41515;BME280;27247;48.020;16.720;2023-04-07T05:58:52;99814.75;;;5.60;57.84
41515;BME280;27247;48.020;16.720;2023-04-07T06:03:02;99812.78;;;5.62;57.98
41515;BME280;27247;48.020;16.720;2023-04-07T06:07:13;99810.97;;;5.63;58.01
41515;BME280;27247;48.020;16.720;2023-04-07T06:11:25;99823.41;;;5.62;57.91
41515;BME280;27247;48.020;16.720;2023-04-07T06:15:36;99819.75;;;5.63;58.25
41515;BME280;27247;48.020;16.720;2023-04-07T06:19:46;99813.91;;;5.60;57.76
41515;BME280;27247;48.020;16.720;2023-04-07T06:23:57;99813.38;;;5.56;58.42
41515;BME280;27247;48.020;16.720;2023-04-07T06:28:07;99817.28;;;5.52;58.15
41515;BME280;27247;48.020;16.720;2023-04-07T06:32:17;99817.97;;;5.54;58.44
41515;BME280;27247;48.020;16.720;2023-04-07T06:36:28;99819.50;;;5.57;58.76
41515;BME280;27247;48.020;16.720;2023-04-07T06:40:38;99825.59;;;5.67;58.69
41515;BME280;27247;48.020;16.720;2023-04-07T06:44:49;99823.91;;;5.75;58.46
41515;BME280;27247;48.020;16.720;2023-04-07T06:48:59;99828.47;;;5.83;58.74
41515;BME280;27247;48.020;16.720;2023-04-07T06:53:10;99820.09;;;5.88;58.06
41515;BME280;27247;48.020;16.720;2023-04-07T06:57:20;99813.41;;;5.93;58.13
41515;BME280;27247;48.020;16.720;2023-04-07T07:01:31;99819.75;;;6.10;58.81
41515;BME280;27247;48.020;16.720;2023-04-07T07:05:41;99811.47;;;6.13;58.19
41515;BME280;27247;48.020;16.720;2023-04-07T07:09:53;99825.13;;;6.18;58.69
41515;BME280;27247;48.020;16.720;2023-04-07T07:14:03;99823.72;;;6.24;58.20
41515;BME280;27247;48.020;16.720;2023-04-07T07:18:14;99822.31;;;6.29;57.76
41515;BME280;27247;48.020;16.720;2023-04-07T07:22:24;99823.16;;;6.30;58.38
41515;BME280;27247;48.020;16.720;2023-04-07T07:26:35;99822.69;;;6.34;58.80
41515;BME280;27247;48.020;16.720;2023-04-07T07:30:45;99830.75;;;6.43;59.36
41515;BME280;27247;48.020;16.720;2023-04-07T07:34:55;99834.25;;;6.43;60.13
41515;BME280;27247;48.020;16.720;2023-04-07T07:39:06;99840.59;;;6.32;59.53
41515;BME280;27247;48.020;16.720;2023-04-07T07:43:17;99836.88;;;6.25;60.21
41515;BME280;27247;48.020;16.720;2023-04-07T07:47:27;99838.94;;;6.22;60.64
41515;BME280;27247;48.020;16.720;2023-04-07T07:51:37;99845.53;;;6.18;60.93
41515;BME280;27247;48.020;16.720;2023-04-07T07:55:49;99838.25;;;6.29;62.17
41515;BME280;27247;48.020;16.720;2023-04-07T08:00:01;99849.47;;;6.41;60.58
41515;BME280;27247;48.020;16.720;2023-04-07T08:04:13;99837.91;;;6.60;61.16
41515;BME280;27247;48.020;16.720;2023-04-07T08:08:23;99840.34;;;6.89;59.90
41515;BME280;27247;48.020;16.720;2023-04-07T08:12:34;99851.34;;;7.29;57.62
41515;BME280;27247;48.020;16.720;2023-04-07T08:16:45;99847.78;;;7.39;57.04
41515;BME280;27247;48.020;16.720;2023-04-07T08:20:55;99838.59;;;7.33;57.05
41515;BME280;27247;48.020;16.720;2023-04-07T08:25:06;99845.06;;;7.30;56.88
41515;BME280;27247;48.020;16.720;2023-04-07T08:29:17;99845.94;;;7.39;57.14
41515;BME280;27247;48.020;16.720;2023-04-07T08:33:27;99843.88;;;7.51;56.74
41515;BME280;27247;48.020;16.720;2023-04-07T08:37:38;99850.75;;;7.61;57.17
41515;BME280;27247;48.020;16.720;2023-04-07T08:41:50;99840.31;;;7.68;57.05
41515;BME280;27247;48.020;16.720;2023-04-07T08:46:01;99835.69;;;7.70;58.31
41515;BME280;27247;48.020;16.720;2023-04-07T08:50:14;99848.47;;;7.66;57.59
41515;BME280;27247;48.020;16.720;2023-04-07T08:54:27;99846.22;;;7.54;58.48
41515;BME280;27247;48.020;16.720;2023-04-07T08:58:38;99846.25;;;7.36;59.65
41515;BME280;27247;48.020;16.720;2023-04-07T09:02:49;99842.25;;;7.32;60.16
41515;BME280;27247;48.020;16.720;2023-04-07T09:07:00;99845.78;;;7.41;58.58
41515;BME280;27247;48.020;16.720;2023-04-07T09:11:13;99838.81;;;7.40;59.56
41515;BME280;27247;48.020;16.720;2023-04-07T09:15:24;99844.06;;;7.57;59.25
41515;BME280;27247;48.020;16.720;2023-04-07T09:19:35;99836.72;;;7.51;59.34
41515;BME280;27247;48.020;16.720;2023-04-07T09:23:46;99834.63;;;7.63;59.47
41515;BME280;27247;48.020;16.720;2023-04-07T09:32:08;99840.16;;;7.69;57.51
41515;BME280;27247;48.020;16.720;2023-04-07T09:36:19;99841.53;;;7.74;58.12
41515;BME280;27247;48.020;16.720;2023-04-07T09:40:29;99846.22;;;7.54;58.35
41515;BME280;27247;48.020;16.720;2023-04-07T09:44:40;99842.88;;;7.52;58.94
41515;BME280;27247;48.020;16.720;2023-04-07T09:49:01;99833.81;;;7.62;59.32
41515;BME280;27247;48.020;16.720;2023-04-07T09:53:15;99839.69;;;7.74;59.19
41515;BME280;27247;48.020;16.720;2023-04-07T09:57:26;99831.81;;;7.64;59.27
41515;BME280;27247;48.020;16.720;2023-04-07T10:01:36;99842.03;;;7.51;58.63
41515;BME280;27247;48.020;16.720;2023-04-07T10:05:47;99840.75;;;7.55;58.40
41515;BME280;27247;48.020;16.720;2023-04-07T10:09:58;99831.81;;;7.64;58.41
41515;BME280;27247;48.020;16.720;2023-04-07T10:14:09;99824.78;;;7.55;57.94
41515;BME280;27247;48.020;16.720;2023-04-07T10:18:21;99827.22;;;7.49;58.04
41515;BME280;27247;48.020;16.720;2023-04-07T10:22:36;99831.72;;;7.48;58.73
41515;BME280;27247;48.020;16.720;2023-04-07T10:26:53;99826.41;;;7.48;58.30
41515;BME280;27247;48.020;16.720;2023-04-07T10:31:04;99832.13;;;7.35;59.00
41515;BME280;27247;48.020;16.720;2023-04-07T10:35:14;99821.41;;;7.27;60.49
41515;BME280;27247;48.020;16.720;2023-04-07T10:39:26;99827.34;;;7.21;61.21
41515;BME280;27247;48.020;16.720;2023-04-07T10:43:40;99826.50;;;7.21;61.36
41515;BME280;27247;48.020;16.720;2023-04-07T10:56:20;99831.50;;;7.24;60.86
41515;BME280;27247;48.020;16.720;2023-04-07T11:00:31;99827.03;;;7.24;61.34
41515;BME280;27247;48.020;16.720;2023-04-07T11:04:45;99826.50;;;7.21;60.76
41515;BME280;27247;48.020;16.720;2023-04-07T11:08:55;99827.88;;;7.25;61.11
41515;BME280;27247;48.020;16.720;2023-04-07T11:13:07;99822.66;;;7.33;60.77
41515;BME280;27247;48.020;16.720;2023-04-07T11:17:17;99822.19;;;7.38;61.52
41515;BME280;27247;48.020;16.720;2023-04-07T11:21:27;99820.16;;;7.57;61.80
41515;BME280;27247;48.020;16.720;2023-04-07T11:25:41;99821.63;;;7.86;60.65
41515;BME280;27247;48.020;16.720;2023-04-07T11:29:52;99810.47;;;8.16;63.28
41515;BME280;27247;48.020;16.720;2023-04-07T11:34:03;99819.81;;;8.28;61.75
41515;BME280;27247;48.020;16.720;2023-04-07T11:38:14;99816.97;;;8.22;61.97
41515;BME280;27247;48.020;16.720;2023-04-07T11:42:53;99808.31;;;8.20;61.90
41515;BME280;27247;48.020;16.720;2023-04-07T11:47:05;99814.44;;;8.12;61.80
41515;BME280;27247;48.020;16.720;2023-04-07T11:51:21;99814.31;;;8.22;62.06
41515;BME280;27247;48.020;16.720;2023-04-07T11:55:34;99808.44;;;8.10;61.63
41515;BME280;27247;48.020;16.720;2023-04-07T11:59:45;99801.94;;;8.05;62.20
41515;BME280;27247;48.020;16.720;2023-04-07T12:04:00;99805.25;;;8.07;61.04
41515;BME280;27247;48.020;16.720;2023-04-07T12:08:12;99801.41;;;8.01;61.75
41515;BME280;27247;48.020;16.720;2023-04-07T12:12:27;99790.78;;;8.01;62.86
41515;BME280;27247;48.020;16.720;2023-04-07T12:16:38;99794.09;;;8.03;61.97
41515;BME280;27247;48.020;16.720;2023-04-07T12:20:48;99797.13;;;8.08;61.73
41515;BME280;27247;48.020;16.720;2023-04-07T12:24:59;99790.13;;;8.07;62.06
41515;BME280;27247;48.020;16.720;2023-04-07T12:29:09;99787.13;;;8.02;62.70
41515;BME280;27247;48.020;16.720;2023-04-07T12:33:20;99792.53;;;7.84;63.43
41515;BME280;27247;48.020;16.720;2023-04-07T12:37:31;99791.13;;;7.72;64.22
41515;BME280;27247;48.020;16.720;2023-04-07T12:41:42;99804.13;;;7.75;65.00
41515;BME280;27247;48.020;16.720;2023-04-07T12:45:54;99804.97;;;7.76;65.26
41515;BME280;27247;48.020;16.720;2023-04-07T12:50:05;99805.53;;;7.61;66.01
41515;BME280;27247;48.020;16.720;2023-04-07T12:54:15;99805.81;;;7.50;68.05
41515;BME280;27247;48.020;16.720;2023-04-07T12:58:26;99809.31;;;7.51;69.40
41515;BME280;27247;48.020;16.720;2023-04-07T13:02:37;99807.22;;;7.36;70.22
41515;BME280;27247;48.020;16.720;2023-04-07T13:06:47;99810.41;;;7.22;71.45
41515;BME280;27247;48.020;16.720;2023-04-07T13:10:59;99814.38;;;7.18;72.13
41515;BME280;27247;48.020;16.720;2023-04-07T13:15:10;99806.84;;;7.14;72.24
41515;BME280;27247;48.020;16.720;2023-04-07T13:19:21;99811.28;;;7.05;71.80
41515;BME280;27247;48.020;16.720;2023-04-07T13:23:31;99796.63;;;7.01;71.71
41515;BME280;27247;48.020;16.720;2023-04-07T13:27:41;99794.72;;;7.11;71.37
41515;BME280;27247;48.020;16.720;2023-04-07T13:31:52;99792.28;;;7.18;70.52
41515;BME280;27247;48.020;16.720;2023-04-07T13:36:02;99790.66;;;7.25;69.93
41515;BME280;27247;48.020;16.720;2023-04-07T13:40:13;99786.63;;;7.39;70.01
41515;BME280;27247;48.020;16.720;2023-04-07T13:44:24;99789.91;;;7.32;69.53
41515;BME280;27247;48.020;16.720;2023-04-07T13:48:35;99785.94;;;7.36;69.63
41515;BME280;27247;48.020;16.720;2023-04-07T13:52:45;99780.13;;;7.33;69.40
41515;BME280;27247;48.020;16.720;2023-04-07T13:56:56;99776.31;;;7.35;69.86
41515;BME280;27247;48.020;16.720;2023-04-07T14:01:06;99777.72;;;7.48;69.40
41515;BME280;27247;48.020;16.720;2023-04-07T14:05:17;99777.59;;;7.57;69.23
41515;BME280;27247;48.020;16.720;2023-04-07T14:09:28;99780.31;;;7.65;69.39
41515;BME280;27247;48.020;16.720;2023-04-07T14:13:39;99787.56;;;7.55;69.21
41515;BME280;27247;48.020;16.720;2023-04-07T14:17:49;99778.22;;;7.51;69.63
41515;BME280;27247;48.020;16.720;2023-04-07T14:21:59;99785.78;;;7.38;69.91
41515;BME280;27247;48.020;16.720;2023-04-07T14:26:10;99788.69;;;7.27;69.95
41515;BME280;27247;48.020;16.720;2023-04-07T14:30:21;99791.06;;;7.30;70.29
41515;BME280;27247;48.020;16.720;2023-04-07T14:34:32;99788.56;;;7.28;71.39
41515;BME280;27247;48.020;16.720;2023-04-07T14:38:43;99790.13;;;7.39;71.18
41515;BME280;27247;48.020;16.720;2023-04-07T14:42:53;99788.59;;;7.36;70.97
41515;BME280;27247;48.020;16.720;2023-04-07T14:47:04;99790.50;;;7.26;71.12
41515;BME280;27247;48.020;16.720;2023-04-07T14:51:15;99780.44;;;7.12;71.41
41515;BME280;27247;48.020;16.720;2023-04-07T14:55:26;99788.66;;;7.01;72.06
41515;BME280;27247;48.020;16.720;2023-04-07T14:59:36;99787.97;;;6.99;72.02
41515;BME280;27247;48.020;16.720;2023-04-07T15:03:47;99791.94;;;6.95;72.23
41515;BME280;27247;48.020;16.720;2023-04-07T15:07:57;99791.09;;;6.94;71.94
41515;BME280;27247;48.020;16.720;2023-04-07T15:12:07;99792.16;;;7.01;72.63
41515;BME280;27247;48.020;16.720;2023-04-07T15:16:18;99787.88;;;7.09;71.81
41515;BME280;27247;48.020;16.720;2023-04-07T15:20:29;99783.94;;;7.13;71.32
41515;BME280;27247;48.020;16.720;2023-04-07T15:24:39;99779.28;;;7.15;71.59
41515;BME280;27247;48.020;16.720;2023-04-07T15:28:49;99781.78;;;7.16;71.54
41515;BME280;27247;48.020;16.720;2023-04-07T15:33:02;99779.34;;;7.23;71.14
41515;BME280;27247;48.020;16.720;2023-04-07T15:37:13;99777.78;;;7.12;70.85
41515;BME280;27247;48.020;16.720;2023-04-07T15:41:23;99785.00;;;7.02;71.56
41515;BME280;27247;48.020;16.720;2023-04-07T15:45:33;99782.53;;;6.83;72.55
41515;BME280;27247;48.020;16.720;2023-04-07T15:49:44;99788.06;;;6.89;72.72
41515;BME280;27247;48.020;16.720;2023-04-07T15:53:54;99786.69;;;6.85;72.80
41515;BME280;27247;48.020;16.720;2023-04-07T15:58:05;99788.13;;;6.97;73.09
41515;BME280;27247;48.020;16.720;2023-04-07T16:02:17;99781.06;;;7.06;73.07
41515;BME280;27247;48.020;16.720;2023-04-07T16:06:27;99781.56;;;7.10;72.65
41515;BME280;27247;48.020;16.720;2023-04-07T16:10:38;99789.72;;;7.08;72.31
41515;BME280;27247;48.020;16.720;2023-04-07T16:14:48;99784.97;;;7.20;73.20
41515;BME280;27247;48.020;16.720;2023-04-07T16:18:59;99784.81;;;7.21;72.96
41515;BME280;27247;48.020;16.720;2023-04-07T16:23:09;99795.13;;;7.24;73.21
41515;BME280;27247;48.020;16.720;2023-04-07T16:27:20;99799.47;;;7.25;72.87
41515;BME280;27247;48.020;16.720;2023-04-07T16:31:30;99798.47;;;7.26;72.82
41515;BME280;27247;48.020;16.720;2023-04-07T16:35:40;99791.50;;;7.25;73.19
41515;BME280;27247;48.020;16.720;2023-04-07T16:39:53;99801.97;;;7.27;73.45
41515;BME280;27247;48.020;16.720;2023-04-07T16:44:05;99804.63;;;7.27;73.75
41515;BME280;27247;48.020;16.720;2023-04-07T16:48:15;99803.28;;;7.23;73.72
41515;BME280;27247;48.020;16.720;2023-04-07T16:52:25;99800.75;;;7.21;73.85
41515;BME280;27247;48.020;16.720;2023-04-07T16:56:36;99808.53;;;7.15;74.75
41515;BME280;27247;48.020;16.720;2023-04-07T17:00:46;99815.81;;;7.13;74.77
41515;BME280;27247;48.020;16.720;2023-04-07T17:04:56;99818.47;;;7.13;74.76
41515;BME280;27247;48.020;16.720;2023-04-07T17:09:07;99818.63;;;7.11;74.67
41515;BME280;27247;48.020;16.720;2023-04-07T17:13:17;99824.63;;;7.13;74.98
41515;BME280;27247;48.020;16.720;2023-04-07T17:17:27;99833.72;;;7.11;74.94
41515;BME280;27247;48.020;16.720;2023-04-07T17:21:38;99836.25;;;7.12;75.63
41515;BME280;27247;48.020;16.720;2023-04-07T17:25:49;99838.91;;;7.12;75.24
41515;BME280;27247;48.020;16.720;2023-04-07T17:29:59;99844.06;;;7.14;75.44
41515;BME280;27247;48.020;16.720;2023-04-07T17:34:10;99848.53;;;7.13;75.36
41515;BME280;27247;48.020;16.720;2023-04-07T17:38:20;99848.69;;;7.12;75.53
41515;BME280;27247;48.020;16.720;2023-04-07T17:42:31;99859.84;;;7.15;76.13
41515;BME280;27247;48.020;16.720;2023-04-07T17:46:43;99857.50;;;7.12;75.53
41515;BME280;27247;48.020;16.720;2023-04-07T17:50:53;99858.84;;;7.16;75.93
41515;BME280;27247;48.020;16.720;2023-04-07T17:55:04;99862.19;;;7.18;75.77
41515;BME280;27247;48.020;16.720;2023-04-07T17:59:15;99871.31;;;7.16;76.75
41515;BME280;27247;48.020;16.720;2023-04-07T18:03:25;99870.31;;;7.17;76.19
41515;BME280;27247;48.020;16.720;2023-04-07T18:07:36;99876.09;;;7.12;76.68
41515;BME280;27247;48.020;16.720;2023-04-07T18:11:46;99884.22;;;7.11;76.62
41515;BME280;27247;48.020;16.720;2023-04-07T18:15:57;99889.84;;;7.08;76.74
41515;BME280;27247;48.020;16.720;2023-04-07T18:20:09;99895.00;;;7.09;76.79
41515;BME280;27247;48.020;16.720;2023-04-07T18:24:19;99891.06;;;7.13;76.49
41515;BME280;27247;48.020;16.720;2023-04-07T18:28:30;99894.84;;;7.11;76.06
41515;BME280;27247;48.020;16.720;2023-04-07T18:32:42;99897.19;;;7.14;75.79
41515;BME280;27247;48.020;16.720;2023-04-07T18:36:53;99902.22;;;7.17;75.52
41515;BME280;27247;48.020;16.720;2023-04-07T18:41:07;99910.47;;;7.14;76.07
41515;BME280;27247;48.020;16.720;2023-04-07T18:45:18;99909.50;;;7.15;76.63
41515;BME280;27247;48.020;16.720;2023-04-07T18:49:28;99907.97;;;7.12;76.66
41515;BME280;27247;48.020;16.720;2023-04-07T18:53:39;99906.69;;;7.16;76.26
41515;BME280;27247;48.020;16.720;2023-04-07T18:57:49;99913.22;;;7.22;76.38
41515;BME280;27247;48.020;16.720;2023-04-07T19:02:00;99913.91;;;7.24;76.90
41515;BME280;27247;48.020;16.720;2023-04-07T19:06:15;99924.75;;;6.95;77.55
41515;BME280;27247;48.020;16.720;2023-04-07T19:10:25;99929.66;;;6.72;79.28
41515;BME280;27247;48.020;16.720;2023-04-07T19:14:35;99927.78;;;6.55;80.55
41515;BME280;27247;48.020;16.720;2023-04-07T19:18:46;99939.56;;;6.43;81.26
41515;BME280;27247;48.020;16.720;2023-04-07T19:22:56;99932.63;;;6.32;82.09
41515;BME280;27247;48.020;16.720;2023-04-07T19:27:07;99940.59;;;6.22;82.56
41515;BME280;27247;48.020;16.720;2023-04-07T19:31:18;99939.91;;;6.20;83.41
41515;BME280;27247;48.020;16.720;2023-04-07T19:35:30;99937.69;;;6.25;82.92
41515;BME280;27247;48.020;16.720;2023-04-07T19:39:41;99950.09;;;6.34;82.21
41515;BME280;27247;48.020;16.720;2023-04-07T19:43:51;99946.84;;;6.40;82.39
41515;BME280;27247;48.020;16.720;2023-04-07T19:48:02;99945.44;;;6.46;82.22
41515;BME280;27247;48.020;16.720;2023-04-07T19:52:12;99951.13;;;6.51;81.60
41515;BME280;27247;48.020;16.720;2023-04-07T19:56:23;99954.88;;;6.58;81.41
41515;BME280;27247;48.020;16.720;2023-04-07T20:00:34;99957.09;;;6.63;81.07
41515;BME280;27247;48.020;16.720;2023-04-07T20:04:45;99955.13;;;6.65;80.95
41515;BME280;27247;48.020;16.720;2023-04-07T20:08:56;99952.16;;;6.68;80.75
41515;BME280;27247;48.020;16.720;2023-04-07T20:13:07;99946.03;;;6.67;80.71
41515;BME280;27247;48.020;16.720;2023-04-07T20:17:18;99951.09;;;6.61;80.97
41515;BME280;27247;48.020;16.720;2023-04-07T20:21:29;99938.09;;;6.58;81.53
41515;BME280;27247;48.020;16.720;2023-04-07T20:25:41;99944.34;;;6.66;81.26
41515;BME280;27247;48.020;16.720;2023-04-07T20:29:51;99944.66;;;6.63;80.71
41515;BME280;27247;48.020;16.720;2023-04-07T20:34:02;99941.00;;;6.64;80.47
41515;BME280;27247;48.020;16.720;2023-04-07T20:38:12;99944.53;;;6.55;79.98
41515;BME280;27247;48.020;16.720;2023-04-07T20:42:23;99946.38;;;6.55;80.04
41515;BME280;27247;48.020;16.720;2023-04-07T20:46:33;99950.28;;;6.51;80.15
41515;BME280;27247;48.020;16.720;2023-04-07T20:50:44;99946.50;;;6.53;80.38
41515;BME280;27247;48.020;16.720;2023-04-07T20:54:54;99937.13;;;6.59;80.17
41515;BME280;27247;48.020;16.720;2023-04-07T20:59:05;99934.88;;;6.64;80.36
41515;BME280;27247;48.020;16.720;2023-04-07T21:03:15;99930.84;;;6.60;80.48
41515;BME280;27247;48.020;16.720;2023-04-07T21:07:26;99947.31;;;6.63;81.13
41515;BME280;27247;48.020;16.720;2023-04-07T21:11:36;99948.44;;;6.61;81.26
41515;BME280;27247;48.020;16.720;2023-04-07T21:15:47;99945.81;;;6.79;80.60
41515;BME280;27247;48.020;16.720;2023-04-07T21:19:57;99947.50;;;6.80;80.88
41515;BME280;27247;48.020;16.720;2023-04-07T21:24:14;99949.38;;;6.69;81.76
41515;BME280;27247;48.020;16.720;2023-04-07T21:28:25;99948.81;;;6.66;83.50
41515;BME280;27247;48.020;16.720;2023-04-07T21:32:35;99952.94;;;6.51;84.54
41515;BME280;27247;48.020;16.720;2023-04-07T21:36:46;99943.25;;;6.22;87.10
41515;BME280;27247;48.020;16.720;2023-04-07T21:40:56;99939.03;;;5.92;89.77
41515;BME280;27247;48.020;16.720;2023-04-07T21:45:07;99934.84;;;5.80;92.18
41515;BME280;27247;48.020;16.720;2023-04-07T21:49:17;99938.34;;;5.71;94.04
41515;BME280;27247;48.020;16.720;2023-04-07T21:53:31;99940.59;;;5.56;95.93
41515;BME280;27247;48.020;16.720;2023-04-07T21:57:41;99933.06;;;5.42;98.01
41515;BME280;27247;48.020;16.720;2023-04-07T22:01:54;99941.16;;;5.31;99.98
41515;BME280;27247;48.020;16.720;2023-04-07T22:06:04;99938.63;;;5.20;100.00
41515;BME280;27247;48.020;16.720;2023-04-07T22:10:15;99941.84;;;5.23;100.00
41515;BME280;27247;48.020;16.720;2023-04-07T22:14:25;99938.19;;;5.14;100.00
41515;BME280;27247;48.020;16.720;2023-04-07T22:18:36;99946.41;;;5.11;100.00
41515;BME280;27247;48.020;16.720;2023-04-07T22:22:46;99931.63;;;5.09;100.00
41515;BME280;27247;48.020;16.720;2023-04-07T22:26:56;99934.97;;;5.01;100.00